ENGLEBRIGHT (USACE) (ENG)

Elevation: 551' · YUBA R basin · Operator: US Army Corps of Engineers

Provisional data, subject to change.
Query executed Friday at 9:51:51   clock

Select a sensor type for a plot of data.
Note: Reservoir Flows are daily averages.

Earlier

Date RES ELE    STORAGE    RES CHG    OUTFLOW    INFLOW    PPT INC   
 FEET   AF   AF   CFS   CFS   INCHES  
08/31/2016 522.51 66375 437 -- 1181 0.00
09/01/2016 523.17 66893 518 -- 1123 0.00
09/02/2016 522.65 66485 -408 -- 656 0.00
09/03/2016 521.78 65805 -680 -- 389 0.00
09/04/2016 521.74 65774 -31 -- 718 0.00
09/05/2016 521.94 65930 156 -- 813 0.00
09/06/2016 522.27 66187 257 -- 917 0.00
09/07/2016 522.50 66367 180 -- 893 0.00
09/08/2016 521.76 65790 -577 -- 457 0.00
09/09/2016 521.91 65907 117 -- 767 0.00
09/10/2016 521.36 65480 -427 -- 494 0.00
09/11/2016 520.56 64862 -618 -- 393 0.00
09/12/2016 519.65 64165 -697 -- 361 0.00
09/13/2016 520.10 64509 344 -- 890 0.00
09/14/2016 520.34 64693 184 -- 813 0.00
09/15/2016 520.45 64778 85 -- 762 0.00
09/16/2016 520.87 65101 323 -- 879 0.00
09/17/2016 520.13 64532 -569 -- 426 0.00
09/18/2016 519.45 64013 -519 -- 444 0.00
09/19/2016 519.56 64097 84 -- 744 0.00
09/20/2016 520.12 64524 427 -- 917 0.00
09/21/2016 520.22 64601 77 -- 745 0.00
09/22/2016 520.87 65101 500 -- 969 0.00
09/23/2016 520.48 64801 -300 -- 973 0.00
09/24/2016 521.02 65217 416 -- 925 0.00
09/25/2016 521.19 65348 131 -- 782 0.00
09/26/2016 521.61 65673 325 -- 876 0.00
09/27/2016 522.75 66563 890 -- 1165 0.00
09/28/2016 522.64 66477 -86 -- 712 0.00
09/29/2016 522.26 66180 -297 -- 634 0.00
09/30/2016 -- -- -- -- -- --

Later | Latest

Warning! This data is preliminary and subject to revision.

Show ENG Map | Plot ENG Data | 1 Month ENG Data | Real-Time ENG Data | ENG Info